Terminal Aerodrome Forecast
Issued by NWS Shreveport, LA

Home | Current Version | Previous Version | Text Only | Print | Product List | Glossary On
Versions: 1 2 3 4 5 6 7 8 9 10 11 12 13 14 15 16 17
000
FTUS44 KSHV 172300
TAFELD
TAF
KELD 172339Z 1800/1824 VRB04KT P6SM SCT250
     FM180900 VRB03KT 3SM BR BKN010
      TEMPO 1809/1813 00000KT 1SM BR BKN005
     FM181600 VRB04KT P6SM FEW035 BKN250
     FM181800 18004KT P6SM SCT050 SCT120 SCT250=

USA.gov is the U.S. government's official web portal to all federal, state and local government web resources and services.